Time;durP1;ratioP1;P1;durP2;ratioP2;P2;SDS_P1;SDS_P2;PMS_P1;PMS_P2;Temp;Humidity;BMP_temperature;BMP_pressure;BME280_temperature;BME280_humidity;BME280_pressure;Samples;Min_cycle;Max_cycle;Signal;HPM_P1;HPM_P2
2023/05/20 00:01:28;;;;;;;4.97;2.80;;;;;;;;;;5055903;28;20181;-66
2023/05/20 00:03:54;;;;;;;8.20;3.30;;;;;;;;;;5056008;28;20201;-64
2023/05/20 00:06:20;;;;;;;4.47;2.80;;;;;;;;;;5056368;28;20312;-66
2023/05/20 00:08:46;;;;;;;6.27;3.13;;;;;;;;;;5037988;28;20217;-65
2023/05/20 00:11:12;;;;;;;3.63;2.63;;;;;;;;;;5055861;28;20224;-65
2023/05/20 00:13:38;;;;;;;5.63;3.13;;;;;;;;;;5037735;28;20750;-66
2023/05/20 00:16:04;;;;;;;5.00;2.80;;;;;;;;;;5054955;28;20528;-65
2023/05/20 00:18:31;;;;;;;4.07;2.80;;;;;;;;;;5056145;28;20182;-63
2023/05/20 00:20:57;;;;;;;4.10;3.10;;;;;;;;;;5058156;28;20175;-65
2023/05/20 00:23:23;;;;;;;6.37;2.90;;;;;;;;;;5057043;28;20232;-65
2023/05/20 00:25:49;;;;;;;2.80;2.37;;;;;;;;;;5056706;28;20183;-65
2023/05/20 00:28:15;;;;;;;3.07;2.60;;;;;;;;;;5056015;28;20206;-66
2023/05/20 00:30:42;;;;;;;7.00;2.90;;;;;;;;;;5037927;28;20201;-65
2023/05/20 00:33:08;;;;;;;6.67;2.97;;;;;;;;;;5055465;28;20178;-65
2023/05/20 00:35:34;;;;;;;6.13;3.17;;;;;;;;;;5055328;28;20209;-66
2023/05/20 00:38:00;;;;;;;4.10;2.60;;;;;;;;;;5055628;28;20636;-66
2023/05/20 00:40:26;;;;;;;6.20;3.03;;;;;;;;;;5055319;28;20181;-66
2023/05/20 00:42:52;;;;;;;3.67;2.50;;;;;;;;;;5055380;28;20652;-66
2023/05/20 00:45:18;;;;;;;6.63;3.10;;;;;;;;;;5054982;28;20222;-65
2023/05/20 00:47:44;;;;;;;3.60;2.60;;;;;;;;;;5037119;28;20213;-65
2023/05/20 00:50:10;;;;;;;6.97;2.70;;;;;;;;;;5037158;28;20236;-65
2023/05/20 00:52:36;;;;;;;6.43;2.90;;;;;;;;;;5054957;28;20245;-65
2023/05/20 00:55:03;;;;;;;4.77;2.70;;;;;;;;;;5054953;28;20200;-66
2023/05/20 00:57:29;;;;;;;8.43;2.53;;;;;;;;;;5036981;28;20182;-65
2023/05/20 00:59:55;;;;;;;3.30;2.60;;;;;;;;;;5036946;28;20311;-66
2023/05/20 01:02:21;;;;;;;4.80;2.80;;;;;;;;;;5036894;28;20663;-66
2023/05/20 01:04:47;;;;;;;4.43;2.60;;;;;;;;;;5036863;28;20570;-65
2023/05/20 01:07:15;;;;;;;5.87;2.73;;;;;;;;;;5054928;28;20238;-65
2023/05/20 01:09:41;;;;;;;7.70;2.90;;;;;;;;;;5054647;28;20253;-65
2023/05/20 01:12:28;;;;;;;7.03;3.03;;;;;;;;;;5054546;28;20179;-66
2023/05/20 01:14:57;;;;;;;4.23;2.67;;;;;;;;;;5054561;28;20198;-67
2023/05/20 01:17:26;;;;;;;4.30;2.83;;;;;;;;;;5036657;28;20183;-66
2023/05/20 01:19:53;;;;;;;3.97;2.63;;;;;;;;;;5037020;28;20535;-67
2023/05/20 01:22:20;;;;;;;6.07;2.93;;;;;;;;;;5036472;28;20320;-66
2023/05/20 01:24:52;;;;;;;6.70;3.00;;;;;;;;;;5020180;28;20642;-65
2023/05/20 01:27:19;;;;;;;4.93;2.80;;;;;;;;;;5035537;28;20181;-65
2023/05/20 01:29:49;;;;;;;6.87;3.03;;;;;;;;;;5054223;28;20206;-66
2023/05/20 01:32:18;;;;;;;3.77;2.80;;;;;;;;;;5036377;28;20759;-65
2023/05/20 01:34:45;;;;;;;4.07;2.70;;;;;;;;;;5035973;28;20210;-66
2023/05/20 01:37:12;;;;;;;3.70;2.90;;;;;;;;;;5054267;28;20179;-65
2023/05/20 01:39:42;;;;;;;3.63;2.87;;;;;;;;;;5054035;28;20261;-65
2023/05/20 01:42:09;;;;;;;3.43;2.47;;;;;;;;;;5054009;28;20184;-65
2023/05/20 01:44:35;;;;;;;7.63;2.90;;;;;;;;;;5054244;28;20198;-65
2023/05/20 01:47:01;;;;;;;5.63;3.03;;;;;;;;;;5036007;28;20186;-65
2023/05/20 01:49:27;;;;;;;3.03;2.73;;;;;;;;;;5053873;28;20207;-65
2023/05/20 01:51:53;;;;;;;4.67;3.03;;;;;;;;;;5054131;28;20287;-65
2023/05/20 01:54:19;;;;;;;2.80;2.50;;;;;;;;;;5036185;28;20687;-65
2023/05/20 01:56:45;;;;;;;5.13;3.13;;;;;;;;;;5053958;28;20174;-65
2023/05/20 01:59:11;;;;;;;5.77;2.87;;;;;;;;;;5035947;28;20210;-65
2023/05/20 02:01:38;;;;;;;4.03;2.70;;;;;;;;;;5053734;28;20175;-65
2023/05/20 02:04:04;;;;;;;9.13;3.27;;;;;;;;;;5054292;28;20194;-65
2023/05/20 02:06:30;;;;;;;6.40;3.00;;;;;;;;;;5035790;28;20304;-65
2023/05/20 02:08:56;;;;;;;8.60;3.27;;;;;;;;;;5035841;28;20319;-66
2023/05/20 02:11:22;;;;;;;4.17;2.60;;;;;;;;;;5053590;28;20631;-65
2023/05/20 02:13:49;;;;;;;5.37;2.90;;;;;;;;;;5053366;28;20226;-65
2023/05/20 02:16:15;;;;;;;5.50;3.07;;;;;;;;;;5053806;28;20175;-65
2023/05/20 02:18:41;;;;;;;6.10;3.00;;;;;;;;;;5035631;28;20278;-65
2023/05/20 02:21:07;;;;;;;3.20;2.67;;;;;;;;;;5053677;28;20178;-66
2023/05/20 02:23:33;;;;;;;4.03;2.80;;;;;;;;;;5053764;28;20225;-65
2023/05/20 02:25:59;;;;;;;4.83;2.90;;;;;;;;;;5053339;28;20182;-66
2023/05/20 02:28:25;;;;;;;9.73;3.57;;;;;;;;;;5035453;28;20202;-66
2023/05/20 02:30:51;;;;;;;4.30;3.50;;;;;;;;;;5053613;28;20171;-65
2023/05/20 02:33:18;;;;;;;4.23;3.10;;;;;;;;;;5053074;28;20630;-65
2023/05/20 02:35:44;;;;;;;5.33;3.57;;;;;;;;;;5053216;28;20194;-65
2023/05/20 02:38:10;;;;;;;4.63;2.97;;;;;;;;;;5035026;28;20187;-66
2023/05/20 02:40:36;;;;;;;3.33;3.00;;;;;;;;;;5053266;28;20599;-66
2023/05/20 02:43:02;;;;;;;3.83;2.87;;;;;;;;;;5053477;28;20186;-65
2023/05/20 02:45:28;;;;;;;6.67;3.20;;;;;;;;;;5053143;28;20209;-66
2023/05/20 02:47:54;;;;;;;8.43;2.80;;;;;;;;;;5053518;28;20248;-66
2023/05/20 02:50:20;;;;;;;6.13;3.10;;;;;;;;;;5053267;28;20698;-65
2023/05/20 02:52:46;;;;;;;4.40;3.00;;;;;;;;;;5035257;28;20678;-65
2023/05/20 02:55:12;;;;;;;5.53;3.30;;;;;;;;;;5035019;28;20202;-65
2023/05/20 02:57:38;;;;;;;6.93;3.20;;;;;;;;;;5035269;28;20289;-66
2023/05/20 03:00:06;;;;;;;5.50;3.00;;;;;;;;;;5053303;28;20261;-65
2023/05/20 03:02:32;;;;;;;9.17;3.03;;;;;;;;;;5052848;28;20312;-65
2023/05/20 03:04:58;;;;;;;4.67;3.03;;;;;;;;;;5052855;28;20676;-65
2023/05/20 03:07:24;;;;;;;4.63;3.10;;;;;;;;;;5035027;28;20316;-65
2023/05/20 03:09:50;;;;;;;6.50;3.27;;;;;;;;;;5035087;28;20213;-65
2023/05/20 03:12:16;;;;;;;4.37;3.10;;;;;;;;;;5053190;28;20652;-65
2023/05/20 03:14:41;;;;;;;5.73;3.07;;;;;;;;;;5052755;28;20244;-66
2023/05/20 03:17:08;;;;;;;9.10;3.33;;;;;;;;;;5052799;28;20553;-65
2023/05/20 03:19:34;;;;;;;6.80;3.23;;;;;;;;;;5053055;28;20177;-64
2023/05/20 03:22:00;;;;;;;6.00;3.40;;;;;;;;;;5053232;28;20179;-65
2023/05/20 03:24:26;;;;;;;5.10;3.17;;;;;;;;;;5052957;28;20249;-65
2023/05/20 03:26:52;;;;;;;5.13;2.67;;;;;;;;;;5052620;28;20220;-64
2023/05/20 03:29:18;;;;;;;7.50;3.20;;;;;;;;;;5052834;28;20202;-65
2023/05/20 03:31:45;;;;;;;5.70;3.30;;;;;;;;;;5052868;28;20261;-64
2023/05/20 03:34:11;;;;;;;6.17;2.93;;;;;;;;;;5034728;28;20264;-66
2023/05/20 03:36:37;;;;;;;5.43;3.27;;;;;;;;;;5034764;28;20273;-64
2023/05/20 03:39:03;;;;;;;6.27;3.10;;;;;;;;;;5053131;28;20186;-65
2023/05/20 03:41:29;;;;;;;9.03;3.93;;;;;;;;;;5052480;28;20182;-67
2023/05/20 03:43:55;;;;;;;4.90;3.17;;;;;;;;;;5052644;28;20199;-64
2023/05/20 03:46:21;;;;;;;6.63;3.10;;;;;;;;;;5052421;28;20186;-65
2023/05/20 03:48:47;;;;;;;3.77;3.37;;;;;;;;;;5052710;28;20245;-65
2023/05/20 03:51:13;;;;;;;6.50;3.90;;;;;;;;;;5036678;28;20175;-65
2023/05/20 03:53:39;;;;;;;4.57;3.47;;;;;;;;;;5056143;28;20229;-65
2023/05/20 03:56:05;;;;;;;6.13;3.03;;;;;;;;;;5055964;28;20177;-65
2023/05/20 03:58:31;;;;;;;4.40;3.23;;;;;;;;;;5037994;28;20240;-65
2023/05/20 04:00:57;;;;;;;9.00;3.67;;;;;;;;;;5038157;28;20182;-65
2023/05/20 04:03:23;;;;;;;6.87;3.60;;;;;;;;;;5055951;28;20237;-65
2023/05/20 04:05:49;;;;;;;4.50;3.43;;;;;;;;;;5056197;28;20182;-65
2023/05/20 04:08:17;;;;;;;5.43;3.73;;;;;;;;;;5037924;28;20233;-65
2023/05/20 04:10:43;;;;;;;4.90;3.80;;;;;;;;;;5037810;28;20179;-65
2023/05/20 04:13:10;;;;;;;7.20;3.30;;;;;;;;;;5055717;28;20174;-65
2023/05/20 04:15:37;;;;;;;5.53;3.37;;;;;;;;;;5055626;28;20181;-65
2023/05/20 04:18:04;;;;;;;5.67;3.27;;;;;;;;;;5055663;28;20182;-65
2023/05/20 04:20:31;;;;;;;6.50;3.37;;;;;;;;;;5055719;28;20232;-65
2023/05/20 04:22:57;;;;;;;4.20;3.10;;;;;;;;;;5055549;28;20254;-65
2023/05/20 04:25:22;;;;;;;5.40;3.63;;;;;;;;;;5037554;28;20280;-65
2023/05/20 04:27:49;;;;;;;7.17;3.43;;;;;;;;;;5055436;28;20699;-65
2023/05/20 04:30:18;;;;;;;5.70;3.00;;;;;;;;;;5055393;28;20174;-65
2023/05/20 04:32:44;;;;;;;7.93;3.73;;;;;;;;;;5055417;28;20171;-65
2023/05/20 04:35:12;;;;;;;4.17;3.20;;;;;;;;;;5037392;28;20222;-65
2023/05/20 04:37:38;;;;;;;5.27;3.70;;;;;;;;;;5055573;28;20178;-65
2023/05/20 04:40:05;;;;;;;3.60;3.10;;;;;;;;;;5055256;28;20224;-65
2023/05/20 04:42:32;;;;;;;7.20;3.57;;;;;;;;;;5055214;28;20225;-65
2023/05/20 04:45:00;;;;;;;5.17;3.77;;;;;;;;;;5037109;28;20202;-65
2023/05/20 04:47:28;;;;;;;7.90;3.40;;;;;;;;;;5037566;28;20182;-65
2023/05/20 04:49:56;;;;;;;5.30;3.40;;;;;;;;;;5037304;28;20545;-65
2023/05/20 04:52:22;;;;;;;4.60;3.27;;;;;;;;;;5055172;28;20171;-65
2023/05/20 04:54:49;;;;;;;5.37;3.40;;;;;;;;;;5054825;28;20275;-65
2023/05/20 04:57:16;;;;;;;4.30;3.47;;;;;;;;;;5036885;28;20308;-65
2023/05/20 04:59:42;;;;;;;5.87;3.90;;;;;;;;;;5036992;28;20182;-65
2023/05/20 05:02:08;;;;;;;4.83;3.60;;;;;;;;;;5036719;28;20175;-65
2023/05/20 05:04:34;;;;;;;8.50;3.50;;;;;;;;;;5054812;28;20206;-65
2023/05/20 05:07:00;;;;;;;4.13;3.10;;;;;;;;;;5054971;28;20205;-64
2023/05/20 05:09:26;;;;;;;5.23;3.53;;;;;;;;;;5054629;28;20202;-65
2023/05/20 05:11:52;;;;;;;5.10;3.60;;;;;;;;;;5054904;28;20640;-65
2023/05/20 05:14:17;;;;;;;4.50;3.17;;;;;;;;;;5054656;28;20615;-65
2023/05/20 05:16:43;;;;;;;4.37;3.13;;;;;;;;;;5036605;28;20560;-65
2023/05/20 05:19:09;;;;;;;5.90;3.67;;;;;;;;;;5055013;28;20179;-65
2023/05/20 05:21:35;;;;;;;6.23;3.73;;;;;;;;;;5054421;28;20573;-65
2023/05/20 05:24:01;;;;;;;5.20;3.67;;;;;;;;;;5054212;28;20211;-65
2023/05/20 05:26:27;;;;;;;7.83;3.80;;;;;;;;;;5054329;28;20190;-65
2023/05/20 05:28:56;;;;;;;6.27;3.90;;;;;;;;;;5036358;28;20704;-65
2023/05/20 05:31:22;;;;;;;5.37;3.73;;;;;;;;;;5036546;28;20174;-65
2023/05/20 05:33:48;;;;;;;6.53;3.90;;;;;;;;;;5053966;28;20225;-65
2023/05/20 05:36:15;;;;;;;6.17;3.83;;;;;;;;;;5054083;28;20194;-65
2023/05/20 05:38:41;;;;;;;7.60;4.03;;;;;;;;;;5036150;28;20182;-65
2023/05/20 05:41:07;;;;;;;5.77;3.67;;;;;;;;;;5053979;28;20186;-65
2023/05/20 05:43:33;;;;;;;5.47;3.20;;;;;;;;;;5053882;28;20268;-64
2023/05/20 05:45:59;;;;;;;5.07;3.50;;;;;;;;;;5054699;28;20174;-65
2023/05/20 05:48:25;;;;;;;6.37;3.37;;;;;;;;;;5035884;28;20198;-65
2023/05/20 05:50:51;;;;;;;3.33;2.70;;;;;;;;;;5036012;28;20214;-66
2023/05/20 05:53:17;;;;;;;5.63;3.50;;;;;;;;;;5036030;28;20576;-65
2023/05/20 05:55:43;;;;;;;4.60;2.87;;;;;;;;;;5053842;28;20175;-65
2023/05/20 05:58:09;;;;;;;4.30;3.07;;;;;;;;;;5035786;28;20182;-65
2023/05/20 06:00:35;;;;;;;6.83;3.70;;;;;;;;;;5035780;28;20260;-65
2023/05/20 06:03:01;;;;;;;4.90;3.60;;;;;;;;;;5035875;28;20205;-66
2023/05/20 06:05:27;;;;;;;4.40;3.10;;;;;;;;;;5035180;23;20234;-69
2023/05/20 06:07:53;;;;;;;5.13;3.40;;;;;;;;;;5015797;28;20211;-69
2023/05/20 06:10:19;;;;;;;5.83;3.30;;;;;;;;;;5015789;28;20186;-69
2023/05/20 06:12:45;;;;;;;3.53;3.17;;;;;;;;;;5015230;28;20183;-69
2023/05/20 06:15:11;;;;;;;7.67;3.37;;;;;;;;;;5033210;28;20256;-67
2023/05/20 06:17:37;;;;;;;3.97;3.10;;;;;;;;;;5015807;28;20667;-67
2023/05/20 06:20:03;;;;;;;4.57;3.13;;;;;;;;;;5015571;28;20179;-67
2023/05/20 06:22:29;;;;;;;3.67;3.03;;;;;;;;;;5015621;28;20183;-69
2023/05/20 06:24:59;;;;;;;7.73;3.17;;;;;;;;;;5015457;28;20214;-67
2023/05/20 06:27:25;;;;;;;3.60;2.43;;;;;;;;;;5015547;28;20190;-67
2023/05/20 06:29:50;;;;;;;3.93;3.13;;;;;;;;;;5033042;28;20203;-69
2023/05/20 06:32:16;;;;;;;7.20;3.43;;;;;;;;;;5015467;28;20178;-68
2023/05/20 06:34:43;;;;;;;3.30;2.83;;;;;;;;;;5015355;28;20201;-68
2023/05/20 06:37:10;;;;;;;10.40;3.30;;;;;;;;;;5015413;28;20211;-68
2023/05/20 06:39:36;;;;;;;5.30;2.70;;;;;;;;;;5036435;28;20546;-68
2023/05/20 06:42:02;;;;;;;4.63;2.93;;;;;;;;;;5033372;28;20250;-68
2023/05/20 06:44:28;;;;;;;2.73;2.53;;;;;;;;;;5033238;28;20661;-69
2023/05/20 06:46:54;;;;;;;5.00;3.07;;;;;;;;;;5015300;28;20185;-69
2023/05/20 06:49:20;;;;;;;4.30;3.43;;;;;;;;;;5015120;28;20202;-68
2023/05/20 06:51:46;;;;;;;5.47;2.60;;;;;;;;;;5015152;28;20267;-68
2023/05/20 06:54:12;;;;;;;3.33;3.00;;;;;;;;;;5032810;28;20256;-69
2023/05/20 06:56:38;;;;;;;10.60;3.37;;;;;;;;;;5033313;28;20305;-68
2023/05/20 06:59:04;;;;;;;6.60;3.27;;;;;;;;;;5032920;28;20179;-69
2023/05/20 07:01:30;;;;;;;3.10;2.80;;;;;;;;;;5032954;28;20179;-68
2023/05/20 07:03:56;;;;;;;7.33;3.87;;;;;;;;;;5032884;28;20202;-69
2023/05/20 07:06:22;;;;;;;3.23;2.83;;;;;;;;;;5033169;28;20178;-69
2023/05/20 07:08:48;;;;;;;4.17;3.70;;;;;;;;;;5032739;28;20198;-69
2023/05/20 07:11:14;;;;;;;7.33;3.13;;;;;;;;;;5015064;28;20656;-68
2023/05/20 07:13:40;;;;;;;5.77;3.43;;;;;;;;;;5032989;28;20184;-68
2023/05/20 07:16:06;;;;;;;8.30;3.50;;;;;;;;;;5015026;28;20266;-68
2023/05/20 07:18:32;;;;;;;8.43;4.73;;;;;;;;;;5014964;28;20275;-68
2023/05/20 07:20:58;;;;;;;5.13;3.57;;;;;;;;;;5014962;28;20182;-68
2023/05/20 07:23:24;;;;;;;3.70;3.20;;;;;;;;;;5032825;28;20190;-69
2023/05/20 07:25:50;;;;;;;3.33;2.90;;;;;;;;;;5017993;28;20593;-69
2023/05/20 07:28:16;;;;;;;3.30;3.00;;;;;;;;;;5036971;28;20677;-69
2023/05/20 07:30:48;;;;;;;2.70;2.50;;;;;;;;;;5036787;28;20186;-69
2023/05/20 07:33:14;;;;;;;3.37;3.00;;;;;;;;;;5036907;28;20167;-69
2023/05/20 07:35:40;;;;;;;6.27;3.37;;;;;;;;;;5036382;28;20194;-69
2023/05/20 07:38:06;;;;;;;5.27;3.77;;;;;;;;;;5036318;28;20183;-68
2023/05/20 07:40:32;;;;;;;4.03;3.40;;;;;;;;;;5036674;28;20258;-69
2023/05/20 07:42:58;;;;;;;3.90;3.50;;;;;;;;;;5036177;28;20183;-69
2023/05/20 07:45:24;;;;;;;5.20;3.33;;;;;;;;;;5018391;28;20206;-69
2023/05/20 07:47:50;;;;;;;4.83;3.80;;;;;;;;;;5018284;28;20644;-69
2023/05/20 07:50:16;;;;;;;6.57;3.77;;;;;;;;;;5036260;28;20241;-69
2023/05/20 07:52:42;;;;;;;3.73;2.87;;;;;;;;;;5018361;28;20179;-69
2023/05/20 07:55:08;;;;;;;8.10;3.70;;;;;;;;;;5018158;28;20660;-68
2023/05/20 07:57:34;;;;;;;4.17;3.77;;;;;;;;;;5018298;28;20221;-69
2023/05/20 08:00:00;;;;;;;4.10;3.70;;;;;;;;;;5018195;28;20266;-68
2023/05/20 08:02:26;;;;;;;4.57;3.40;;;;;;;;;;5035881;28;20238;-69
2023/05/20 08:04:52;;;;;;;4.73;4.13;;;;;;;;;;5035655;28;20214;-69
2023/05/20 08:07:18;;;;;;;4.30;3.70;;;;;;;;;;5018044;28;20215;-69
2023/05/20 08:09:44;;;;;;;3.90;3.50;;;;;;;;;;5035750;28;20195;-69
2023/05/20 08:12:10;;;;;;;5.63;4.37;;;;;;;;;;5035687;28;20602;-69
2023/05/20 08:14:36;;;;;;;5.83;3.77;;;;;;;;;;5035522;28;20195;-69
2023/05/20 08:17:02;;;;;;;4.13;3.30;;;;;;;;;;5035495;28;20200;-69
2023/05/20 08:19:28;;;;;;;4.90;3.77;;;;;;;;;;5035813;28;20187;-69
2023/05/20 08:21:54;;;;;;;7.83;3.83;;;;;;;;;;5035566;28;20187;-69
2023/05/20 08:24:20;;;;;;;6.63;3.53;;;;;;;;;;5017621;28;20201;-69
2023/05/20 08:26:46;;;;;;;5.07;3.83;;;;;;;;;;5018380;28;20182;-69
2023/05/20 08:29:12;;;;;;;4.40;3.87;;;;;;;;;;5035365;28;20203;-69
2023/05/20 08:31:38;;;;;;;7.80;4.53;;;;;;;;;;5035447;28;20220;-69
2023/05/20 08:34:04;;;;;;;6.57;4.50;;;;;;;;;;5035317;28;20253;-69
2023/05/20 08:36:29;;;;;;;6.63;4.80;;;;;;;;;;5034633;28;20179;-69
2023/05/20 08:38:56;;;;;;;5.77;4.27;;;;;;;;;;5017385;28;20187;-69
2023/05/20 08:41:23;;;;;;;6.13;4.13;;;;;;;;;;5017513;28;20649;-69
2023/05/20 08:43:51;;;;;;;5.47;4.33;;;;;;;;;;5035185;28;20661;-69
2023/05/20 08:46:18;;;;;;;5.57;4.20;;;;;;;;;;5017522;28;20222;-69
2023/05/20 08:48:44;;;;;;;5.33;3.90;;;;;;;;;;5017393;28;20577;-69
2023/05/20 08:51:10;;;;;;;5.47;4.60;;;;;;;;;;5017414;28;20719;-69
2023/05/20 08:53:36;;;;;;;6.43;4.20;;;;;;;;;;5035207;28;20181;-69
2023/05/20 08:56:02;;;;;;;5.90;4.43;;;;;;;;;;5035364;28;20168;-69
2023/05/20 08:58:29;;;;;;;5.27;4.33;;;;;;;;;;5017084;28;20175;-69
2023/05/20 09:00:55;;;;;;;8.53;5.13;;;;;;;;;;5016941;28;20183;-69
2023/05/20 09:03:22;;;;;;;7.10;4.37;;;;;;;;;;5034978;28;20230;-69
2023/05/20 09:05:48;;;;;;;6.53;4.57;;;;;;;;;;5034661;28;20214;-69
2023/05/20 09:08:14;;;;;;;7.63;4.63;;;;;;;;;;5016900;28;20695;-69
2023/05/20 09:10:41;;;;;;;5.93;4.67;;;;;;;;;;5017002;28;20286;-69
2023/05/20 09:13:07;;;;;;;5.30;4.57;;;;;;;;;;5034961;28;20258;-69
2023/05/20 09:15:34;;;;;;;6.67;4.60;;;;;;;;;;5016853;28;20203;-69
2023/05/20 09:18:01;;;;;;;10.87;4.57;;;;;;;;;;5016610;28;20684;-69
2023/05/20 09:20:28;;;;;;;5.37;3.67;;;;;;;;;;5035409;28;20175;-69
2023/05/20 09:22:58;;;;;;;6.23;5.40;;;;;;;;;;5034696;28;20183;-69
2023/05/20 09:25:24;;;;;;;4.17;3.60;;;;;;;;;;5034243;28;20277;-69
2023/05/20 09:27:50;;;;;;;6.00;4.13;;;;;;;;;;5016496;28;20218;-69
2023/05/20 09:30:19;;;;;;;6.63;4.80;;;;;;;;;;5016466;28;20219;-69
2023/05/20 09:32:51;;;;;;;8.07;4.43;;;;;;;;;;5034096;28;20278;-69
2023/05/20 09:35:18;;;;;;;6.00;4.10;;;;;;;;;;5016414;28;20636;-69
2023/05/20 09:37:45;;;;;;;7.17;5.10;;;;;;;;;;5034048;28;20171;-69
2023/05/20 09:40:12;;;;;;;7.27;4.37;;;;;;;;;;5033986;28;20171;-70
2023/05/20 09:42:49;;;;;;;7.43;5.97;;;;;;;;;;5016181;28;20179;-69
2023/05/20 09:45:15;;;;;;;6.93;4.70;;;;;;;;;;5033880;28;20199;-69
2023/05/20 09:47:43;;;;;;;5.50;4.60;;;;;;;;;;5033142;28;20648;-69
2023/05/20 09:50:09;;;;;;;5.63;5.00;;;;;;;;;;5033673;28;20195;-69
2023/05/20 09:52:37;;;;;;;16.77;7.07;;;;;;;;;;5033786;28;20183;-69
2023/05/20 09:55:09;;;;;;;8.73;6.20;;;;;;;;;;5033799;28;20195;-69
2023/05/20 09:57:35;;;;;;;7.37;5.90;;;;;;;;;;5033879;28;20163;-70
2023/05/20 10:00:03;;;;;;;10.00;4.83;;;;;;;;;;5015966;28;20266;-69
2023/05/20 10:02:29;;;;;;;5.40;4.67;;;;;;;;;;5033719;28;20168;-69
2023/05/20 10:04:56;;;;;;;6.63;5.07;;;;;;;;;;5033563;28;20210;-69
2023/05/20 10:07:38;;;;;;;8.47;5.50;;;;;;;;;;5034272;28;20183;-68
2023/05/20 10:10:13;;;;;;;6.90;5.50;;;;;;;;;;5016637;28;20199;-68
2023/05/20 10:12:46;;;;;;;7.17;5.97;;;;;;;;;;5033763;28;20178;-69
2023/05/20 10:15:31;;;;;;;6.00;4.77;;;;;;;;;;5036849;28;20203;-68
2023/05/20 10:18:15;;;;;;;6.47;5.20;;;;;;;;;;5034710;28;20229;-69
2023/05/20 10:20:47;;;;;;;7.33;4.47;;;;;;;;;;5034598;28;20286;-69
2023/05/20 10:23:20;;;;;;;6.30;5.63;;;;;;;;;;5034347;28;20179;-69
2023/05/20 10:25:51;;;;;;;6.40;5.70;;;;;;;;;;5033560;28;20569;-69
2023/05/20 10:28:24;;;;;;;7.67;6.60;;;;;;;;;;5033709;28;20806;-69
2023/05/20 10:30:50;;;;;;;8.63;6.20;;;;;;;;;;5033850;28;20167;-68
2023/05/20 10:33:18;;;;;;;6.63;4.60;;;;;;;;;;5015586;28;20555;-69
2023/05/20 10:35:51;;;;;;;7.10;5.40;;;;;;;;;;5015595;28;20278;-69
2023/05/20 10:38:17;;;;;;;5.10;4.53;;;;;;;;;;5033341;28;20175;-69
2023/05/20 10:40:43;;;;;;;4.93;4.47;;;;;;;;;;5033217;28;20186;-69
2023/05/20 10:43:13;;;;;;;6.77;5.20;;;;;;;;;;5015632;28;20265;-68
2023/05/20 10:45:52;;;;;;;6.93;5.50;;;;;;;;;;5032977;28;20231;-69
2023/05/20 10:48:27;;;;;;;9.23;6.17;;;;;;;;;;5015346;28;20687;-69
2023/05/20 10:51:02;;;;;;;5.33;4.40;;;;;;;;;;5033300;28;20177;-69
2023/05/20 10:53:30;;;;;;;6.17;5.50;;;;;;;;;;5033728;28;20159;-69
2023/05/20 10:55:56;;;;;;;4.17;3.67;;;;;;;;;;5015152;28;20272;-68
2023/05/20 10:58:23;;;;;;;6.70;5.17;;;;;;;;;;5033092;28;20187;-71
2023/05/20 11:00:50;;;;;;;7.20;4.57;;;;;;;;;;5036278;28;20178;-69
2023/05/20 11:03:17;;;;;;;8.53;4.87;;;;;;;;;;5037268;28;20262;-70
2023/05/20 11:05:44;;;;;;;5.73;4.60;;;;;;;;;;5019080;28;20660;-69
2023/05/20 11:08:10;;;;;;;9.87;4.83;;;;;;;;;;5019116;28;20570;-69
2023/05/20 11:10:36;;;;;;;5.57;5.07;;;;;;;;;;5037579;28;20203;-69
2023/05/20 11:13:03;;;;;;;6.17;4.13;;;;;;;;;;5037121;28;20181;-69
2023/05/20 11:15:30;;;;;;;6.30;4.20;;;;;;;;;;5019568;28;20203;-69
2023/05/20 11:18:00;;;;;;;7.93;5.50;;;;;;;;;;5019033;28;20183;-69
2023/05/20 11:20:27;;;;;;;5.90;5.30;;;;;;;;;;5037196;28;20194;-69
2023/05/20 11:22:53;;;;;;;5.73;4.73;;;;;;;;;;5019005;28;20186;-70
2023/05/20 11:25:22;;;;;;;5.53;4.97;;;;;;;;;;5036692;28;20195;-71
2023/05/20 11:27:49;;;;;;;6.07;5.23;;;;;;;;;;5036661;28;20199;-69
2023/05/20 11:30:15;;;;;;;6.00;5.07;;;;;;;;;;5036883;28;20205;-69
2023/05/20 11:32:42;;;;;;;5.90;5.00;;;;;;;;;;5036497;28;20183;-69
2023/05/20 11:35:19;;;;;;;5.07;4.07;;;;;;;;;;5036660;28;20282;-69
2023/05/20 11:37:45;;;;;;;5.83;4.70;;;;;;;;;;5018664;28;20724;-69
2023/05/20 11:40:12;;;;;;;8.87;5.43;;;;;;;;;;5018531;28;20645;-69
2023/05/20 11:42:38;;;;;;;6.35;5.10;;;;;;;;;;5035699;28;20376;-69
2023/05/20 11:45:04;;;;;;;5.90;5.30;;;;;;;;;;5036344;28;20261;-69
2023/05/20 11:47:31;;;;;;;7.17;5.53;;;;;;;;;;5018443;28;20194;-69
2023/05/20 11:49:57;;;;;;;6.77;5.00;;;;;;;;;;5036528;28;20199;-69
2023/05/20 11:52:23;;;;;;;8.07;5.73;;;;;;;;;;5036193;28;20202;-69
2023/05/20 11:54:52;;;;;;;8.63;4.27;;;;;;;;;;5036267;28;20195;-69
2023/05/20 11:57:19;;;;;;;8.73;5.43;;;;;;;;;;5036294;28;20553;-69
2023/05/20 11:59:45;;;;;;;6.90;5.10;;;;;;;;;;5019062;28;20641;-69
2023/05/20 12:02:10;;;;;;;4.93;4.47;;;;;;;;;;5037639;28;20262;-70
2023/05/20 12:04:36;;;;;;;5.80;4.30;;;;;;;;;;5019154;28;20223;-70
2023/05/20 12:07:05;;;;;;;6.43;5.10;;;;;;;;;;5036414;28;20187;-69
2023/05/20 12:09:31;;;;;;;6.20;5.43;;;;;;;;;;5036375;28;20226;-69
2023/05/20 12:11:58;;;;;;;5.90;5.33;;;;;;;;;;5034805;28;20180;-69
2023/05/20 12:14:24;;;;;;;5.83;5.23;;;;;;;;;;5017912;28;20626;-69
2023/05/20 12:16:51;;;;;;;5.90;4.97;;;;;;;;;;5018111;28;20183;-69
2023/05/20 12:19:17;;;;;;;11.13;5.00;;;;;;;;;;5035760;28;20641;-70
2023/05/20 12:21:46;;;;;;;6.33;5.70;;;;;;;;;;5017905;28;20179;-69
2023/05/20 12:24:12;;;;;;;8.47;4.40;;;;;;;;;;5035554;28;20303;-70
2023/05/20 12:26:39;;;;;;;5.90;5.30;;;;;;;;;;5035603;28;20179;-69
2023/05/20 12:29:05;;;;;;;5.43;4.53;;;;;;;;;;5036223;28;20257;-69
2023/05/20 12:31:31;;;;;;;6.17;5.40;;;;;;;;;;5017896;28;20175;-69
2023/05/20 12:33:57;;;;;;;6.20;4.60;;;;;;;;;;5017786;28;20206;-69
2023/05/20 12:36:23;;;;;;;7.43;5.30;;;;;;;;;;5035599;28;20713;-69
2023/05/20 12:38:49;;;;;;;6.27;4.73;;;;;;;;;;5036531;28;20550;-69
2023/05/20 12:41:15;;;;;;;5.90;3.57;;;;;;;;;;5017816;28;20175;-69
2023/05/20 12:43:41;;;;;;;4.67;4.27;;;;;;;;;;5035527;28;20663;-69
2023/05/20 12:46:07;;;;;;;9.50;4.80;;;;;;;;;;5035430;28;20176;-69
2023/05/20 12:48:33;;;;;;;4.30;3.90;;;;;;;;;;5017501;28;20691;-69
2023/05/20 12:50:59;;;;;;;5.60;4.50;;;;;;;;;;5035496;28;20190;-69
2023/05/20 12:53:25;;;;;;;5.10;3.73;;;;;;;;;;5062266;23;20234;-67
2023/05/20 12:55:51;;;;;;;4.93;3.60;;;;;;;;;;5055139;28;20181;-66
2023/05/20 12:58:17;;;;;;;7.47;4.10;;;;;;;;;;5054909;28;20563;-65
2023/05/20 13:00:43;;;;;;;5.73;3.60;;;;;;;;;;5055010;28;20182;-68
2023/05/20 13:03:09;;;;;;;6.27;3.83;;;;;;;;;;5037509;28;20217;-65
2023/05/20 13:05:35;;;;;;;4.10;3.70;;;;;;;;;;5055368;28;20182;-68
2023/05/20 13:08:02;;;;;;;4.53;4.00;;;;;;;;;;5055069;28;20182;-64
2023/05/20 13:10:28;;;;;;;6.53;4.00;;;;;;;;;;5055033;28;20163;-67
2023/05/20 13:12:53;;;;;;;5.60;4.20;;;;;;;;;;5054802;28;20565;-67
2023/05/20 13:15:19;;;;;;;5.10;4.43;;;;;;;;;;5055118;28;20177;-64
2023/05/20 13:17:45;;;;;;;4.33;3.50;;;;;;;;;;5054555;28;20177;-66
2023/05/20 13:20:12;;;;;;;4.70;4.30;;;;;;;;;;5036892;28;20270;-66
2023/05/20 13:22:38;;;;;;;5.00;4.27;;;;;;;;;;5036425;28;20209;-66
2023/05/20 13:25:04;;;;;;;4.00;3.60;;;;;;;;;;5055036;28;20257;-68
2023/05/20 13:27:30;;;;;;;9.40;4.27;;;;;;;;;;5054740;28;20189;-68
2023/05/20 13:29:56;;;;;;;5.23;4.50;;;;;;;;;;5054310;28;20197;-65
2023/05/20 13:32:22;;;;;;;5.50;4.50;;;;;;;;;;5054857;28;20199;-63
2023/05/20 13:34:48;;;;;;;5.03;4.53;;;;;;;;;;5054738;28;20179;-66
2023/05/20 13:37:14;;;;;;;5.37;4.23;;;;;;;;;;5036368;28;20178;-66
2023/05/20 13:39:40;;;;;;;5.43;3.90;;;;;;;;;;5054127;28;20265;-65
2023/05/20 13:42:06;;;;;;;4.90;3.63;;;;;;;;;;5054225;28;20201;-66
2023/05/20 13:44:32;;;;;;;5.90;3.30;;;;;;;;;;5054599;28;20179;-65
2023/05/20 13:46:58;;;;;;;9.70;4.17;;;;;;;;;;5054094;28;20189;-65
2023/05/20 13:49:24;;;;;;;7.40;4.27;;;;;;;;;;5054386;28;20198;-65
2023/05/20 13:51:50;;;;;;;5.40;3.73;;;;;;;;;;5053929;28;20178;-66
2023/05/20 13:54:16;;;;;;;6.23;3.90;;;;;;;;;;5054353;28;20177;-66
2023/05/20 13:56:42;;;;;;;3.90;3.53;;;;;;;;;;5054016;28;20170;-66
2023/05/20 13:59:08;;;;;;;4.80;3.83;;;;;;;;;;5054179;28;20179;-67
2023/05/20 14:01:34;;;;;;;3.90;3.50;;;;;;;;;;5053752;28;20232;-64
2023/05/20 14:04:00;;;;;;;3.87;3.50;;;;;;;;;;5053603;28;20558;-65
2023/05/20 14:06:28;;;;;;;4.50;3.87;;;;;;;;;;5053726;28;20179;-65
2023/05/20 14:08:54;;;;;;;6.33;3.93;;;;;;;;;;5053659;28;20200;-66
2023/05/20 14:11:20;;;;;;;4.40;3.20;;;;;;;;;;5053662;28;20555;-65
2023/05/20 14:13:46;;;;;;;4.87;3.90;;;;;;;;;;5053472;28;20194;-65
2023/05/20 14:16:12;;;;;;;4.97;3.80;;;;;;;;;;5035736;28;20652;-66
2023/05/20 14:18:38;;;;;;;4.47;3.57;;;;;;;;;;5053974;28;20187;-66
2023/05/20 14:21:04;;;;;;;3.17;2.87;;;;;;;;;;5053828;28;20186;-66
2023/05/20 14:23:30;;;;;;;3.87;3.40;;;;;;;;;;5035793;28;20578;-66
2023/05/20 14:25:56;;;;;;;4.83;3.10;;;;;;;;;;5053573;28;20175;-66
2023/05/20 14:28:22;;;;;;;6.13;4.10;;;;;;;;;;5053262;28;20726;-66
2023/05/20 14:30:48;;;;;;;6.93;3.87;;;;;;;;;;5053937;28;20255;-65
2023/05/20 14:33:14;;;;;;;5.83;3.10;;;;;;;;;;5053410;28;20672;-65
2023/05/20 14:35:40;;;;;;;4.40;3.03;;;;;;;;;;5034913;28;20637;-65
2023/05/20 14:38:06;;;;;;;4.73;2.97;;;;;;;;;;5053101;28;20210;-65
2023/05/20 14:40:32;;;;;;;6.80;2.97;;;;;;;;;;5053216;28;20174;-65